Jhang Weather



Jhang's Current Weather

Temprature 38.49o few clouds

few clouds

Rain: 0 %

Min Temprature38o
Max Temprature38.89o
Humidity21
Wind Speed4.1 m/h
Sun Rise05:00:21
Sun Set19:23:20
Current Time: 26-Jun-2019 15:06:47
Lat/Lon: 33.67, 72.7




Jhang's Geo Location



Jhang's Weather Forecast

Time Overall Temp Min Temp Max Temp Humidity Wind Speed Rain
26-Jun-2019 (Wed)
17:00:00 clear sky 39.200 39.200 40.150 11 3.07 m/h 0 %
20:00:00 clear sky 35.140 35.140 35.847 16 1.55 m/h 0 %
23:00:00 clear sky 32.770 32.770 33.240 19 2.99 m/h 0 %
27-Jun-2019 (Thu)
02:00:00 clear sky 29.840 29.840 30.079 27 1.45 m/h 0 %
05:00:00 clear sky 28.665 28.665 28.665 28 2.65 m/h 0 %
08:00:00 clear sky 33.850 33.850 33.850 21 2.59 m/h 0 %
11:00:00 clear sky 38.274 38.274 38.274 16 2.79 m/h 0 %
14:00:00 clear sky 41.050 41.050 41.050 14 2.72 m/h 0 %
17:00:00 clear sky 41.580 41.580 41.580 12 2.23 m/h 0 %
20:00:00 clear sky 37.394 37.394 37.394 15 3.12 m/h 0 %
23:00:00 clear sky 34.235 34.235 34.235 19 1.64 m/h 0 %
28-Jun-2019 (Fri)
02:00:00 clear sky 30.628 30.628 30.628 27 1.97 m/h 0 %
05:00:00 clear sky 28.928 28.928 28.928 29 1.48 m/h 0 %
08:00:00 clear sky 33.299 33.299 33.299 23 2.3 m/h 0 %
11:00:00 clear sky 39.125 39.125 39.125 15 2.75 m/h 0 %
14:00:00 clear sky 42.631 42.631 42.631 9 2.33 m/h 0 %
17:00:00 clear sky 43.050 43.050 43.050 9 2.65 m/h 0 %
20:00:00 clear sky 38.350 38.350 38.350 13 1.99 m/h 0 %
23:00:00 clear sky 35.172 35.172 35.172 16 2.67 m/h 0 %
29-Jun-2019 (Sat)
02:00:00 clear sky 31.772 31.772 31.772 20 2.72 m/h 0 %
05:00:00 clear sky 29.699 29.699 29.699 24 1.89 m/h 0 %
08:00:00 clear sky 35.187 35.187 35.187 18 1.81 m/h 0 %
11:00:00 clear sky 40.950 40.950 40.950 12 2.77 m/h 0 %
14:00:00 clear sky 44.350 44.350 44.350 8 2.42 m/h 0 %
17:00:00 clear sky 44.391 44.391 44.391 8 2.13 m/h 0 %
20:00:00 broken clouds 38.950 38.950 38.950 14 3.6 m/h 0 %
23:00:00 scattered clouds 35.750 35.750 35.750 17 1.72 m/h 0 %
30-Jun-2019 (Sun)
02:00:00 broken clouds 33.256 33.256 33.256 22 1.38 m/h 0 %
05:00:00 broken clouds 31.132 31.132 31.132 23 0.96 m/h 0 %
08:00:00 scattered clouds 35.642 35.642 35.642 18 0.75 m/h 0 %
11:00:00 few clouds 41.418 41.418 41.418 13 2.61 m/h 0 %
14:00:00 clear sky 44.708 44.708 44.708 9 2.53 m/h 0 %
17:00:00 clear sky 45.350 45.350 45.350 9 3.4 m/h 0 %
20:00:00 clear sky 40.150 40.150 40.150 13 1.27 m/h 0 %
23:00:00 clear sky 34.950 34.950 34.950 20 3.35 m/h 0 %
01-Jul-2019 (Mon)
02:00:00 clear sky 32.850 32.850 32.850 24 3.04 m/h 0 %
05:00:00 clear sky 31.235 31.235 31.235 25 1.29 m/h 0 %
08:00:00 clear sky 35.650 35.650 35.650 19 1.27 m/h 0 %
11:00:00 clear sky 41.350 41.350 41.350 14 2.09 m/h 0 %
14:00:00 clear sky 45.050 45.050 45.050 11 2.2 m/h 0 %

Famous Cities (60)